KBPT/BPT METAR and TAF weather

Enter ICAO airport designator
Station Type Date Time Source
KBPT METAR 2021/05/10 21:53 UTC NOAA

KBPT 102153Z 13010KT 10SM CLR 30/21 A2989 RMK AO2 SLP121 T03000211


Station Type Date Time Source
KBPT Decoded METAR 2021/05/10 21:53 UTC NOAA

SOUTHEAST TEXAS RGNL AIRPORT, TX, United States (KBPT) 29-95N 094-08W 5M
May 10, 2021 - 05:53 PM EDT / 2021.05.10 2153 UTC
Wind: from the SE (130 degrees) at 12 MPH (10 KT):0
Visibility: 10 mile(s):0
Sky conditions: clear
Temperature: 86.0 F (30.0 C)
Dew Point: 70.0 F (21.1 C)
Relative Humidity: 58%
Pressure (altimeter): 29.89 in. Hg (1012 hPa)
ob: KBPT 102153Z 13010KT 10SM CLR 30/21 A2989 RMK AO2 SLP121 T03000211
cycle: 22

Station Type Date Time Source
KBPT TAF 2021/05/10 18:42 UTC NOAA

TAF KBPT 101735Z 1018/1118 11011KT P6SM FEW020 SCT040
FM102000 17008KT P6SM BKN150
FM110300 13005KT P6SM BKN050
FM110900 14008KT 6SM BR OVC025
FM111200 VRB05KT 4SM BR OVC025
FM111500 15009KT P6SM OVC025

Example: see airport list